sensor_id;sensor_type;location;lat;lon;timestamp;P1;durP1;ratioP1;P2;durP2;ratioP2
54139;SDS011;40046;53.254;5.900;2023-07-13T00:02:25;4.28;;;1.55;;
54139;SDS011;40046;53.254;5.900;2023-07-13T00:04:54;8.48;;;1.42;;
54139;SDS011;40046;53.254;5.900;2023-07-13T00:07:21;9.63;;;2.28;;
54139;SDS011;40046;53.254;5.900;2023-07-13T00:09:47;12.07;;;2.03;;
54139;SDS011;40046;53.254;5.900;2023-07-13T00:12:24;8.75;;;1.70;;
54139;SDS011;40046;53.254;5.900;2023-07-13T00:14:50;10.70;;;2.17;;
54139;SDS011;40046;53.254;5.900;2023-07-13T00:17:16;9.15;;;1.77;;
54139;SDS011;40046;53.254;5.900;2023-07-13T00:19:43;14.80;;;2.30;;
54139;SDS011;40046;53.254;5.900;2023-07-13T00:22:09;9.60;;;1.40;;
54139;SDS011;40046;53.254;5.900;2023-07-13T00:24:35;5.80;;;1.52;;
54139;SDS011;40046;53.254;5.900;2023-07-13T00:27:07;7.85;;;1.65;;
54139;SDS011;40046;53.254;5.900;2023-07-13T00:29:34;6.10;;;1.55;;
54139;SDS011;40046;53.254;5.900;2023-07-13T00:32:01;7.53;;;1.70;;
54139;SDS011;40046;53.254;5.900;2023-07-13T00:34:28;10.13;;;1.60;;
54139;SDS011;40046;53.254;5.900;2023-07-13T00:36:54;9.50;;;2.20;;
54139;SDS011;40046;53.254;5.900;2023-07-13T00:39:20;6.30;;;2.03;;
54139;SDS011;40046;53.254;5.900;2023-07-13T00:41:47;7.82;;;1.40;;
54139;SDS011;40046;53.254;5.900;2023-07-13T00:44:14;9.88;;;1.85;;
54139;SDS011;40046;53.254;5.900;2023-07-13T00:46:40;5.68;;;1.52;;
54139;SDS011;40046;53.254;5.900;2023-07-13T00:49:07;11.23;;;1.48;;
54139;SDS011;40046;53.254;5.900;2023-07-13T00:51:39;6.32;;;1.08;;
54139;SDS011;40046;53.254;5.900;2023-07-13T00:54:08;6.43;;;1.98;;
54139;SDS011;40046;53.254;5.900;2023-07-13T00:56:35;6.38;;;1.45;;
54139;SDS011;40046;53.254;5.900;2023-07-13T00:59:02;6.65;;;1.55;;
54139;SDS011;40046;53.254;5.900;2023-07-13T01:01:30;4.47;;;1.13;;
54139;SDS011;40046;53.254;5.900;2023-07-13T01:03:57;3.95;;;1.05;;
54139;SDS011;40046;53.254;5.900;2023-07-13T01:06:24;6.35;;;1.27;;
54139;SDS011;40046;53.254;5.900;2023-07-13T01:08:50;5.90;;;1.10;;
54139;SDS011;40046;53.254;5.900;2023-07-13T01:11:20;8.23;;;1.98;;
54139;SDS011;40046;53.254;5.900;2023-07-13T01:13:47;6.28;;;1.33;;
54139;SDS011;40046;53.254;5.900;2023-07-13T01:16:17;1.77;;;0.75;;
54139;SDS011;40046;53.254;5.900;2023-07-13T01:18:44;2.42;;;0.60;;
54139;SDS011;40046;53.254;5.900;2023-07-13T01:21:11;4.07;;;1.13;;
54139;SDS011;40046;53.254;5.900;2023-07-13T01:23:39;5.75;;;1.10;;
54139;SDS011;40046;53.254;5.900;2023-07-13T01:26:05;2.97;;;0.88;;
54139;SDS011;40046;53.254;5.900;2023-07-13T01:28:31;3.55;;;0.95;;
54139;SDS011;40046;53.254;5.900;2023-07-13T01:31:02;5.43;;;0.77;;
54139;SDS011;40046;53.254;5.900;2023-07-13T01:33:28;4.35;;;1.02;;
54139;SDS011;40046;53.254;5.900;2023-07-13T01:35:55;5.13;;;1.27;;
54139;SDS011;40046;53.254;5.900;2023-07-13T01:38:25;5.00;;;1.13;;
54139;SDS011;40046;53.254;5.900;2023-07-13T01:40:51;4.57;;;1.10;;
54139;SDS011;40046;53.254;5.900;2023-07-13T01:43:18;4.25;;;1.02;;
54139;SDS011;40046;53.254;5.900;2023-07-13T01:45:44;3.25;;;0.93;;
54139;SDS011;40046;53.254;5.900;2023-07-13T01:48:11;3.83;;;1.23;;
54139;SDS011;40046;53.254;5.900;2023-07-13T01:50:38;4.00;;;0.80;;
54139;SDS011;40046;53.254;5.900;2023-07-13T01:53:04;5.88;;;1.23;;
54139;SDS011;40046;53.254;5.900;2023-07-13T01:55:30;1.88;;;0.65;;
54139;SDS011;40046;53.254;5.900;2023-07-13T01:57:56;5.53;;;1.20;;
54139;SDS011;40046;53.254;5.900;2023-07-13T02:00:23;5.93;;;1.10;;
54139;SDS011;40046;53.254;5.900;2023-07-13T02:02:49;7.05;;;1.67;;
54139;SDS011;40046;53.254;5.900;2023-07-13T02:05:17;4.78;;;1.23;;
54139;SDS011;40046;53.254;5.900;2023-07-13T02:07:43;5.57;;;1.30;;
54139;SDS011;40046;53.254;5.900;2023-07-13T02:10:10;7.60;;;1.90;;
54139;SDS011;40046;53.254;5.900;2023-07-13T02:12:36;9.55;;;2.17;;
54139;SDS011;40046;53.254;5.900;2023-07-13T02:15:04;8.18;;;1.50;;
54139;SDS011;40046;53.254;5.900;2023-07-13T02:17:31;6.22;;;1.60;;
54139;SDS011;40046;53.254;5.900;2023-07-13T02:19:57;7.47;;;1.52;;
54139;SDS011;40046;53.254;5.900;2023-07-13T02:22:23;6.95;;;2.35;;
54139;SDS011;40046;53.254;5.900;2023-07-13T02:24:50;7.43;;;1.40;;
54139;SDS011;40046;53.254;5.900;2023-07-13T02:27:17;8.02;;;1.95;;
54139;SDS011;40046;53.254;5.900;2023-07-13T02:29:43;9.00;;;1.77;;
54139;SDS011;40046;53.254;5.900;2023-07-13T02:32:09;7.72;;;2.17;;
54139;SDS011;40046;53.254;5.900;2023-07-13T02:34:36;9.43;;;2.63;;
54139;SDS011;40046;53.254;5.900;2023-07-13T02:37:03;6.10;;;1.77;;
54139;SDS011;40046;53.254;5.900;2023-07-13T02:39:29;7.65;;;1.98;;
54139;SDS011;40046;53.254;5.900;2023-07-13T02:41:58;7.32;;;1.63;;
54139;SDS011;40046;53.254;5.900;2023-07-13T02:44:25;10.65;;;2.08;;
54139;SDS011;40046;53.254;5.900;2023-07-13T02:46:51;10.05;;;1.98;;
54139;SDS011;40046;53.254;5.900;2023-07-13T02:49:17;8.57;;;1.85;;
54139;SDS011;40046;53.254;5.900;2023-07-13T02:51:43;10.55;;;1.98;;
54139;SDS011;40046;53.254;5.900;2023-07-13T02:54:09;8.40;;;2.38;;
54139;SDS011;40046;53.254;5.900;2023-07-13T02:56:37;9.27;;;2.15;;
54139;SDS011;40046;53.254;5.900;2023-07-13T02:59:04;7.00;;;1.83;;
54139;SDS011;40046;53.254;5.900;2023-07-13T03:01:30;14.02;;;2.35;;
54139;SDS011;40046;53.254;5.900;2023-07-13T03:03:58;14.07;;;2.70;;
54139;SDS011;40046;53.254;5.900;2023-07-13T03:06:25;15.05;;;2.40;;
54139;SDS011;40046;53.254;5.900;2023-07-13T03:08:56;6.50;;;2.55;;
54139;SDS011;40046;53.254;5.900;2023-07-13T03:11:22;11.65;;;2.58;;
54139;SDS011;40046;53.254;5.900;2023-07-13T03:14:12;7.60;;;2.00;;
54139;SDS011;40046;53.254;5.900;2023-07-13T03:16:39;16.42;;;3.90;;
54139;SDS011;40046;53.254;5.900;2023-07-13T03:19:05;14.48;;;3.28;;
54139;SDS011;40046;53.254;5.900;2023-07-13T03:21:31;15.60;;;3.10;;
54139;SDS011;40046;53.254;5.900;2023-07-13T03:23:57;10.57;;;2.53;;
54139;SDS011;40046;53.254;5.900;2023-07-13T03:26:24;9.73;;;3.00;;
54139;SDS011;40046;53.254;5.900;2023-07-13T03:28:50;8.43;;;2.38;;
54139;SDS011;40046;53.254;5.900;2023-07-13T03:31:24;11.07;;;2.80;;
54139;SDS011;40046;53.254;5.900;2023-07-13T03:33:51;8.35;;;2.25;;
54139;SDS011;40046;53.254;5.900;2023-07-13T03:36:19;8.13;;;2.63;;
54139;SDS011;40046;53.254;5.900;2023-07-13T03:38:47;9.63;;;2.05;;
54139;SDS011;40046;53.254;5.900;2023-07-13T03:41:14;15.85;;;3.35;;
54139;SDS011;40046;53.254;5.900;2023-07-13T03:43:40;8.32;;;3.03;;
54139;SDS011;40046;53.254;5.900;2023-07-13T03:46:07;7.72;;;2.97;;
54139;SDS011;40046;53.254;5.900;2023-07-13T03:48:33;7.72;;;3.08;;
54139;SDS011;40046;53.254;5.900;2023-07-13T03:50:59;8.30;;;2.33;;
54139;SDS011;40046;53.254;5.900;2023-07-13T03:53:26;9.77;;;2.60;;
54139;SDS011;40046;53.254;5.900;2023-07-13T03:55:52;7.07;;;2.40;;
54139;SDS011;40046;53.254;5.900;2023-07-13T04:00:58;9.20;;;3.05;;
54139;SDS011;40046;53.254;5.900;2023-07-13T04:03:26;12.43;;;3.65;;
54139;SDS011;40046;53.254;5.900;2023-07-13T04:05:54;9.52;;;2.92;;
54139;SDS011;40046;53.254;5.900;2023-07-13T04:08:22;13.07;;;2.85;;
54139;SDS011;40046;53.254;5.900;2023-07-13T04:10:48;11.70;;;3.58;;
54139;SDS011;40046;53.254;5.900;2023-07-13T04:13:14;8.48;;;3.08;;
54139;SDS011;40046;53.254;5.900;2023-07-13T04:15:40;11.73;;;2.95;;
54139;SDS011;40046;53.254;5.900;2023-07-13T04:18:06;11.65;;;3.63;;
54139;SDS011;40046;53.254;5.900;2023-07-13T04:20:32;13.88;;;3.72;;
54139;SDS011;40046;53.254;5.900;2023-07-13T04:22:58;11.68;;;3.08;;
54139;SDS011;40046;53.254;5.900;2023-07-13T04:25:25;5.88;;;2.30;;
54139;SDS011;40046;53.254;5.900;2023-07-13T04:27:51;12.20;;;2.75;;
54139;SDS011;40046;53.254;5.900;2023-07-13T04:30:18;11.00;;;2.70;;
54139;SDS011;40046;53.254;5.900;2023-07-13T04:32:44;9.20;;;3.03;;
54139;SDS011;40046;53.254;5.900;2023-07-13T04:35:10;11.30;;;3.58;;
54139;SDS011;40046;53.254;5.900;2023-07-13T04:37:36;13.13;;;3.10;;
54139;SDS011;40046;53.254;5.900;2023-07-13T04:40:03;10.25;;;3.55;;
54139;SDS011;40046;53.254;5.900;2023-07-13T04:42:29;9.25;;;3.13;;
54139;SDS011;40046;53.254;5.900;2023-07-13T04:44:55;13.35;;;3.35;;
54139;SDS011;40046;53.254;5.900;2023-07-13T04:47:21;6.80;;;2.85;;
54139;SDS011;40046;53.254;5.900;2023-07-13T04:49:48;10.38;;;3.45;;
54139;SDS011;40046;53.254;5.900;2023-07-13T04:52:14;10.05;;;3.47;;
54139;SDS011;40046;53.254;5.900;2023-07-13T04:54:40;9.27;;;3.17;;
54139;SDS011;40046;53.254;5.900;2023-07-13T04:57:07;12.60;;;3.75;;
54139;SDS011;40046;53.254;5.900;2023-07-13T04:59:33;10.55;;;3.53;;
54139;SDS011;40046;53.254;5.900;2023-07-13T05:02:00;8.63;;;3.25;;
54139;SDS011;40046;53.254;5.900;2023-07-13T05:04:26;8.40;;;2.75;;
54139;SDS011;40046;53.254;5.900;2023-07-13T05:06:52;10.27;;;2.58;;
54139;SDS011;40046;53.254;5.900;2023-07-13T05:09:18;13.88;;;3.55;;
54139;SDS011;40046;53.254;5.900;2023-07-13T05:11:45;10.98;;;3.17;;
54139;SDS011;40046;53.254;5.900;2023-07-13T05:14:11;9.70;;;3.17;;
54139;SDS011;40046;53.254;5.900;2023-07-13T05:16:37;14.90;;;4.13;;
54139;SDS011;40046;53.254;5.900;2023-07-13T05:19:03;10.38;;;2.65;;
54139;SDS011;40046;53.254;5.900;2023-07-13T05:21:30;10.55;;;2.92;;
54139;SDS011;40046;53.254;5.900;2023-07-13T05:23:56;6.80;;;2.15;;
54139;SDS011;40046;53.254;5.900;2023-07-13T05:26:22;9.10;;;2.40;;
54139;SDS011;40046;53.254;5.900;2023-07-13T05:28:48;10.35;;;2.85;;
54139;SDS011;40046;53.254;5.900;2023-07-13T05:31:14;7.10;;;2.83;;
54139;SDS011;40046;53.254;5.900;2023-07-13T05:33:40;7.15;;;1.88;;
54139;SDS011;40046;53.254;5.900;2023-07-13T05:36:07;10.93;;;2.67;;
54139;SDS011;40046;53.254;5.900;2023-07-13T05:38:33;10.38;;;4.10;;
54139;SDS011;40046;53.254;5.900;2023-07-13T05:40:59;11.80;;;3.17;;
54139;SDS011;40046;53.254;5.900;2023-07-13T05:43:26;8.23;;;2.03;;
54139;SDS011;40046;53.254;5.900;2023-07-13T05:45:56;9.20;;;2.92;;
54139;SDS011;40046;53.254;5.900;2023-07-13T05:48:22;8.10;;;1.98;;
54139;SDS011;40046;53.254;5.900;2023-07-13T05:50:48;9.30;;;2.53;;
54139;SDS011;40046;53.254;5.900;2023-07-13T05:53:15;5.75;;;1.50;;
54139;SDS011;40046;53.254;5.900;2023-07-13T05:55:45;5.93;;;1.73;;
54139;SDS011;40046;53.254;5.900;2023-07-13T05:58:18;8.40;;;1.88;;
54139;SDS011;40046;53.254;5.900;2023-07-13T06:00:44;7.45;;;1.80;;
54139;SDS011;40046;53.254;5.900;2023-07-13T06:03:10;4.68;;;1.42;;
54139;SDS011;40046;53.254;5.900;2023-07-13T06:05:37;6.70;;;1.63;;
54139;SDS011;40046;53.254;5.900;2023-07-13T06:08:03;5.72;;;1.55;;
54139;SDS011;40046;53.254;5.900;2023-07-13T06:10:32;7.00;;;1.55;;
54139;SDS011;40046;53.254;5.900;2023-07-13T06:12:58;8.18;;;1.58;;
54139;SDS011;40046;53.254;5.900;2023-07-13T06:15:24;7.47;;;1.70;;
54139;SDS011;40046;53.254;5.900;2023-07-13T06:17:50;5.88;;;1.58;;
54139;SDS011;40046;53.254;5.900;2023-07-13T06:20:16;5.53;;;1.40;;
54139;SDS011;40046;53.254;5.900;2023-07-13T06:22:42;5.85;;;1.20;;
54139;SDS011;40046;53.254;5.900;2023-07-13T06:25:09;4.25;;;1.02;;
54139;SDS011;40046;53.254;5.900;2023-07-13T06:27:35;5.53;;;1.48;;
54139;SDS011;40046;53.254;5.900;2023-07-13T06:30:01;5.90;;;1.45;;
54139;SDS011;40046;53.254;5.900;2023-07-13T06:32:28;5.28;;;1.30;;
54139;SDS011;40046;53.254;5.900;2023-07-13T06:34:54;5.57;;;1.30;;
54139;SDS011;40046;53.254;5.900;2023-07-13T06:37:20;7.63;;;1.33;;
54139;SDS011;40046;53.254;5.900;2023-07-13T06:39:46;5.00;;;1.30;;
54139;SDS011;40046;53.254;5.900;2023-07-13T06:42:12;5.50;;;1.63;;
54139;SDS011;40046;53.254;5.900;2023-07-13T06:44:38;8.07;;;1.15;;
54139;SDS011;40046;53.254;5.900;2023-07-13T06:47:05;4.80;;;1.58;;
54139;SDS011;40046;53.254;5.900;2023-07-13T06:49:31;4.50;;;1.13;;
54139;SDS011;40046;53.254;5.900;2023-07-13T06:51:57;3.00;;;1.10;;
54139;SDS011;40046;53.254;5.900;2023-07-13T06:54:23;6.03;;;1.65;;
54139;SDS011;40046;53.254;5.900;2023-07-13T06:56:50;5.97;;;3.35;;
54139;SDS011;40046;53.254;5.900;2023-07-13T06:59:16;10.10;;;2.05;;
54139;SDS011;40046;53.254;5.900;2023-07-13T07:01:42;6.68;;;1.00;;
54139;SDS011;40046;53.254;5.900;2023-07-13T07:04:08;3.83;;;0.90;;
54139;SDS011;40046;53.254;5.900;2023-07-13T07:06:34;5.82;;;1.38;;
54139;SDS011;40046;53.254;5.900;2023-07-13T07:09:00;5.88;;;1.80;;
54139;SDS011;40046;53.254;5.900;2023-07-13T07:11:26;5.78;;;1.27;;
54139;SDS011;40046;53.254;5.900;2023-07-13T07:13:53;5.80;;;1.85;;
54139;SDS011;40046;53.254;5.900;2023-07-13T07:16:20;3.80;;;1.15;;
54139;SDS011;40046;53.254;5.900;2023-07-13T07:18:46;3.53;;;0.90;;
54139;SDS011;40046;53.254;5.900;2023-07-13T07:21:13;4.93;;;1.10;;
54139;SDS011;40046;53.254;5.900;2023-07-13T07:23:39;7.32;;;1.30;;
54139;SDS011;40046;53.254;5.900;2023-07-13T07:26:05;2.90;;;1.30;;
54139;SDS011;40046;53.254;5.900;2023-07-13T07:28:33;2.45;;;0.80;;
54139;SDS011;40046;53.254;5.900;2023-07-13T07:31:00;2.60;;;0.85;;
54139;SDS011;40046;53.254;5.900;2023-07-13T07:33:26;3.97;;;0.80;;
54139;SDS011;40046;53.254;5.900;2023-07-13T07:35:52;4.75;;;1.15;;
54139;SDS011;40046;53.254;5.900;2023-07-13T07:38:18;5.80;;;1.63;;
54139;SDS011;40046;53.254;5.900;2023-07-13T07:40:44;5.63;;;2.03;;
54139;SDS011;40046;53.254;5.900;2023-07-13T07:43:11;6.65;;;1.27;;
54139;SDS011;40046;53.254;5.900;2023-07-13T07:45:38;5.80;;;1.25;;
54139;SDS011;40046;53.254;5.900;2023-07-13T07:48:05;4.93;;;1.20;;
54139;SDS011;40046;53.254;5.900;2023-07-13T07:50:31;6.15;;;0.90;;
54139;SDS011;40046;53.254;5.900;2023-07-13T07:52:58;4.57;;;1.30;;
54139;SDS011;40046;53.254;5.900;2023-07-13T07:55:24;5.10;;;1.10;;
54139;SDS011;40046;53.254;5.900;2023-07-13T07:57:51;8.27;;;1.48;;
54139;SDS011;40046;53.254;5.900;2023-07-13T08:00:18;4.45;;;1.60;;
54139;SDS011;40046;53.254;5.900;2023-07-13T08:02:46;7.72;;;1.50;;
54139;SDS011;40046;53.254;5.900;2023-07-13T08:05:13;4.10;;;1.42;;
54139;SDS011;40046;53.254;5.900;2023-07-13T08:07:39;5.05;;;1.50;;
54139;SDS011;40046;53.254;5.900;2023-07-13T08:10:06;6.63;;;1.60;;
54139;SDS011;40046;53.254;5.900;2023-07-13T08:12:39;3.67;;;1.23;;
54139;SDS011;40046;53.254;5.900;2023-07-13T08:15:06;7.78;;;2.15;;
54139;SDS011;40046;53.254;5.900;2023-07-13T08:17:32;8.40;;;1.88;;
54139;SDS011;40046;53.254;5.900;2023-07-13T08:19:58;6.95;;;1.50;;
54139;SDS011;40046;53.254;5.900;2023-07-13T08:22:25;5.35;;;1.10;;
54139;SDS011;40046;53.254;5.900;2023-07-13T08:24:51;7.82;;;3.22;;
54139;SDS011;40046;53.254;5.900;2023-07-13T08:27:24;3.38;;;1.35;;
54139;SDS011;40046;53.254;5.900;2023-07-13T08:29:51;8.05;;;2.35;;
54139;SDS011;40046;53.254;5.900;2023-07-13T08:32:18;11.75;;;3.60;;
54139;SDS011;40046;53.254;5.900;2023-07-13T08:34:45;7.72;;;2.28;;
54139;SDS011;40046;53.254;5.900;2023-07-13T08:37:11;5.22;;;1.60;;
54139;SDS011;40046;53.254;5.900;2023-07-13T08:39:37;4.38;;;1.65;;
54139;SDS011;40046;53.254;5.900;2023-07-13T08:42:10;4.38;;;1.40;;
54139;SDS011;40046;53.254;5.900;2023-07-13T08:44:44;9.57;;;1.70;;
54139;SDS011;40046;53.254;5.900;2023-07-13T08:47:15;4.13;;;1.40;;
54139;SDS011;40046;53.254;5.900;2023-07-13T08:49:42;6.75;;;1.35;;
54139;SDS011;40046;53.254;5.900;2023-07-13T08:54:54;8.23;;;1.38;;
54139;SDS011;40046;53.254;5.900;2023-07-13T08:57:27;7.60;;;1.98;;
54139;SDS011;40046;53.254;5.900;2023-07-13T08:59:57;7.43;;;1.05;;
54139;SDS011;40046;53.254;5.900;2023-07-13T09:04:59;4.55;;;1.13;;
54139;SDS011;40046;53.254;5.900;2023-07-13T09:15:05;8.15;;;1.15;;
54139;SDS011;40046;53.254;5.900;2023-07-13T09:17:45;4.25;;;1.48;;
54139;SDS011;40046;53.254;5.900;2023-07-13T09:22:45;3.85;;;1.30;;
54139;SDS011;40046;53.254;5.900;2023-07-13T09:27:39;6.43;;;0.93;;
54139;SDS011;40046;53.254;5.900;2023-07-13T09:32:39;3.60;;;1.00;;
54139;SDS011;40046;53.254;5.900;2023-07-13T09:35:11;3.17;;;0.82;;
54139;SDS011;40046;53.254;5.900;2023-07-13T09:37:38;3.30;;;0.82;;
54139;SDS011;40046;53.254;5.900;2023-07-13T09:40:09;3.92;;;0.75;;
54139;SDS011;40046;53.254;5.900;2023-07-13T09:42:37;2.50;;;1.20;;
54139;SDS011;40046;53.254;5.900;2023-07-13T09:45:03;2.97;;;0.80;;
54139;SDS011;40046;53.254;5.900;2023-07-13T09:47:33;2.88;;;0.70;;
54139;SDS011;40046;53.254;5.900;2023-07-13T09:50:06;3.38;;;1.10;;
54139;SDS011;40046;53.254;5.900;2023-07-13T09:57:49;2.45;;;0.73;;
54139;SDS011;40046;53.254;5.900;2023-07-13T10:00:24;2.05;;;0.68;;
54139;SDS011;40046;53.254;5.900;2023-07-13T10:05:39;5.60;;;1.23;;
54139;SDS011;40046;53.254;5.900;2023-07-13T10:08:05;5.93;;;1.63;;
54139;SDS011;40046;53.254;5.900;2023-07-13T10:10:32;2.55;;;0.82;;
54139;SDS011;40046;53.254;5.900;2023-07-13T10:13:01;5.28;;;1.25;;
54139;SDS011;40046;53.254;5.900;2023-07-13T10:15:29;6.70;;;1.73;;
54139;SDS011;40046;53.254;5.900;2023-07-13T10:17:56;6.50;;;1.20;;
54139;SDS011;40046;53.254;5.900;2023-07-13T10:20:24;3.20;;;1.63;;
54139;SDS011;40046;53.254;5.900;2023-07-13T10:22:55;4.47;;;1.30;;
54139;SDS011;40046;53.254;5.900;2023-07-13T10:25:24;6.30;;;1.48;;
54139;SDS011;40046;53.254;5.900;2023-07-13T10:27:51;5.03;;;1.63;;
54139;SDS011;40046;53.254;5.900;2023-07-13T10:30:22;7.45;;;1.58;;
54139;SDS011;40046;53.254;5.900;2023-07-13T10:32:50;5.80;;;1.50;;
54139;SDS011;40046;53.254;5.900;2023-07-13T10:35:18;5.05;;;1.23;;
54139;SDS011;40046;53.254;5.900;2023-07-13T10:37:54;6.03;;;1.55;;
54139;SDS011;40046;53.254;5.900;2023-07-13T10:40:24;4.13;;;1.45;;
54139;SDS011;40046;53.254;5.900;2023-07-13T10:42:52;4.47;;;1.60;;
54139;SDS011;40046;53.254;5.900;2023-07-13T10:45:21;4.97;;;1.30;;
54139;SDS011;40046;53.254;5.900;2023-07-13T10:47:48;3.20;;;1.17;;
54139;SDS011;40046;53.254;5.900;2023-07-13T10:50:15;6.53;;;1.67;;
54139;SDS011;40046;53.254;5.900;2023-07-13T10:52:47;5.70;;;1.20;;
54139;SDS011;40046;53.254;5.900;2023-07-13T10:58:01;2.35;;;0.90;;
54139;SDS011;40046;53.254;5.900;2023-07-13T11:00:30;4.05;;;1.63;;
54139;SDS011;40046;53.254;5.900;2023-07-13T11:02:58;5.57;;;1.38;;
54139;SDS011;40046;53.254;5.900;2023-07-13T11:05:29;4.78;;;1.05;;
54139;SDS011;40046;53.254;5.900;2023-07-13T11:08:02;2.95;;;0.98;;
54139;SDS011;40046;53.254;5.900;2023-07-13T11:15:58;3.65;;;1.20;;
54139;SDS011;40046;53.254;5.900;2023-07-13T11:18:25;5.95;;;1.92;;
54139;SDS011;40046;53.254;5.900;2023-07-13T11:20:51;5.80;;;1.80;;
54139;SDS011;40046;53.254;5.900;2023-07-13T11:23:19;5.60;;;1.40;;
54139;SDS011;40046;53.254;5.900;2023-07-13T11:25:46;5.63;;;1.77;;
54139;SDS011;40046;53.254;5.900;2023-07-13T11:28:17;6.25;;;1.77;;
54139;SDS011;40046;53.254;5.900;2023-07-13T11:30:46;4.15;;;1.73;;
54139;SDS011;40046;53.254;5.900;2023-07-13T11:33:58;7.47;;;2.50;;
54139;SDS011;40046;53.254;5.900;2023-07-13T11:36:00;7.45;;;1.95;;
54139;SDS011;40046;53.254;5.900;2023-07-13T11:38:32;4.88;;;1.33;;
54139;SDS011;40046;53.254;5.900;2023-07-13T11:41:00;5.47;;;1.85;;
54139;SDS011;40046;53.254;5.900;2023-07-13T11:43:28;6.82;;;1.98;;
54139;SDS011;40046;53.254;5.900;2023-07-13T11:45:55;4.97;;;1.85;;
54139;SDS011;40046;53.254;5.900;2023-07-13T11:48:22;11.57;;;3.70;;
54139;SDS011;40046;53.254;5.900;2023-07-13T11:50:53;9.88;;;3.83;;
54139;SDS011;40046;53.254;5.900;2023-07-13T11:53:21;20.27;;;5.07;;
54139;SDS011;40046;53.254;5.900;2023-07-13T11:55:47;7.60;;;2.78;;
54139;SDS011;40046;53.254;5.900;2023-07-13T11:58:14;11.23;;;2.65;;
54139;SDS011;40046;53.254;5.900;2023-07-13T12:00:43;12.95;;;3.08;;
54139;SDS011;40046;53.254;5.900;2023-07-13T12:03:10;13.40;;;2.55;;
54139;SDS011;40046;53.254;5.900;2023-07-13T12:05:37;5.13;;;1.80;;
54139;SDS011;40046;53.254;5.900;2023-07-13T12:08:09;16.60;;;2.22;;
54139;SDS011;40046;53.254;5.900;2023-07-13T12:10:36;11.70;;;4.00;;
54139;SDS011;40046;53.254;5.900;2023-07-13T12:13:03;9.82;;;2.78;;
54139;SDS011;40046;53.254;5.900;2023-07-13T12:17:56;8.40;;;2.40;;
54139;SDS011;40046;53.254;5.900;2023-07-13T12:20:26;7.07;;;2.10;;
54139;SDS011;40046;53.254;5.900;2023-07-13T12:22:53;6.40;;;2.25;;
54139;SDS011;40046;53.254;5.900;2023-07-13T12:25:19;7.68;;;2.25;;
54139;SDS011;40046;53.254;5.900;2023-07-13T12:27:46;8.38;;;2.78;;
54139;SDS011;40046;53.254;5.900;2023-07-13T12:30:23;6.07;;;2.03;;
54139;SDS011;40046;53.254;5.900;2023-07-13T12:32:57;6.38;;;2.28;;
54139;SDS011;40046;53.254;5.900;2023-07-13T12:35:24;7.75;;;2.50;;
54139;SDS011;40046;53.254;5.900;2023-07-13T12:37:51;6.82;;;1.52;;
54139;SDS011;40046;53.254;5.900;2023-07-13T12:40:20;6.03;;;2.00;;
54139;SDS011;40046;53.254;5.900;2023-07-13T12:42:49;9.02;;;2.63;;
54139;SDS011;40046;53.254;5.900;2023-07-13T12:45:19;7.47;;;2.55;;
54139;SDS011;40046;53.254;5.900;2023-07-13T12:47:47;12.02;;;2.47;;
54139;SDS011;40046;53.254;5.900;2023-07-13T12:50:18;6.65;;;1.75;;
54139;SDS011;40046;53.254;5.900;2023-07-13T12:52:49;5.03;;;1.70;;
54139;SDS011;40046;53.254;5.900;2023-07-13T12:55:17;7.28;;;1.65;;
54139;SDS011;40046;53.254;5.900;2023-07-13T12:57:48;10.70;;;1.73;;
54139;SDS011;40046;53.254;5.900;2023-07-13T13:00:19;9.07;;;2.60;;
54139;SDS011;40046;53.254;5.900;2023-07-13T13:02:48;5.80;;;1.77;;
54139;SDS011;40046;53.254;5.900;2023-07-13T13:05:15;5.55;;;1.83;;
54139;SDS011;40046;53.254;5.900;2023-07-13T13:07:41;8.38;;;2.08;;
54139;SDS011;40046;53.254;5.900;2023-07-13T13:10:11;6.20;;;1.95;;
54139;SDS011;40046;53.254;5.900;2023-07-13T13:12:37;5.10;;;1.60;;
54139;SDS011;40046;53.254;5.900;2023-07-13T13:15:04;6.38;;;2.13;;
54139;SDS011;40046;53.254;5.900;2023-07-13T13:17:32;6.38;;;1.33;;
54139;SDS011;40046;53.254;5.900;2023-07-13T13:19:59;7.32;;;1.73;;
54139;SDS011;40046;53.254;5.900;2023-07-13T13:22:25;7.95;;;1.65;;
54139;SDS011;40046;53.254;5.900;2023-07-13T13:24:52;6.85;;;2.15;;
54139;SDS011;40046;53.254;5.900;2023-07-13T13:27:18;7.90;;;1.73;;
54139;SDS011;40046;53.254;5.900;2023-07-13T13:29:45;8.40;;;3.83;;
54139;SDS011;40046;53.254;5.900;2023-07-13T13:32:12;7.72;;;1.98;;
54139;SDS011;40046;53.254;5.900;2023-07-13T13:34:39;5.97;;;1.73;;
54139;SDS011;40046;53.254;5.900;2023-07-13T13:37:16;7.53;;;1.65;;
54139;SDS011;40046;53.254;5.900;2023-07-13T13:39:43;9.75;;;2.33;;
54139;SDS011;40046;53.254;5.900;2023-07-13T13:42:10;5.95;;;1.85;;
54139;SDS011;40046;53.254;5.900;2023-07-13T13:44:36;6.60;;;1.88;;
54139;SDS011;40046;53.254;5.900;2023-07-13T13:47:02;6.03;;;1.75;;
54139;SDS011;40046;53.254;5.900;2023-07-13T13:49:29;4.05;;;1.60;;
54139;SDS011;40046;53.254;5.900;2023-07-13T13:51:55;5.72;;;1.55;;
54139;SDS011;40046;53.254;5.900;2023-07-13T13:54:22;14.48;;;3.00;;
54139;SDS011;40046;53.254;5.900;2023-07-13T13:56:51;8.07;;;1.90;;
54139;SDS011;40046;53.254;5.900;2023-07-13T13:59:18;7.05;;;1.95;;
54139;SDS011;40046;53.254;5.900;2023-07-13T14:01:45;7.28;;;1.83;;
54139;SDS011;40046;53.254;5.900;2023-07-13T14:04:20;10.13;;;2.95;;
54139;SDS011;40046;53.254;5.900;2023-07-13T14:06:47;6.43;;;2.15;;
54139;SDS011;40046;53.254;5.900;2023-07-13T14:09:16;5.22;;;1.73;;
54139;SDS011;40046;53.254;5.900;2023-07-13T14:11:43;6.63;;;1.73;;
54139;SDS011;40046;53.254;5.900;2023-07-13T14:14:14;6.88;;;2.03;;
54139;SDS011;40046;53.254;5.900;2023-07-13T14:16:42;6.07;;;1.87;;
54139;SDS011;40046;53.254;5.900;2023-07-13T14:19:10;8.13;;;2.15;;
54139;SDS011;40046;53.254;5.900;2023-07-13T14:21:37;5.28;;;1.50;;
54139;SDS011;40046;53.254;5.900;2023-07-13T14:24:03;6.57;;;1.83;;
54139;SDS011;40046;53.254;5.900;2023-07-13T14:26:30;4.93;;;1.38;;
54139;SDS011;40046;53.254;5.900;2023-07-13T14:28:58;7.03;;;1.75;;
54139;SDS011;40046;53.254;5.900;2023-07-13T14:31:25;5.03;;;1.73;;
54139;SDS011;40046;53.254;5.900;2023-07-13T14:33:54;4.43;;;1.88;;
54139;SDS011;40046;53.254;5.900;2023-07-13T14:36:30;7.22;;;1.88;;
54139;SDS011;40046;53.254;5.900;2023-07-13T14:38:57;7.07;;;1.90;;
54139;SDS011;40046;53.254;5.900;2023-07-13T14:41:23;8.43;;;2.22;;
54139;SDS011;40046;53.254;5.900;2023-07-13T14:43:49;7.93;;;2.13;;
54139;SDS011;40046;53.254;5.900;2023-07-13T14:46:24;8.18;;;2.25;;
54139;SDS011;40046;53.254;5.900;2023-07-13T14:48:53;6.18;;;1.73;;
54139;SDS011;40046;53.254;5.900;2023-07-13T14:51:20;6.78;;;1.80;;
54139;SDS011;40046;53.254;5.900;2023-07-13T14:53:46;9.02;;;3.33;;
54139;SDS011;40046;53.254;5.900;2023-07-13T14:56:13;6.50;;;2.08;;
54139;SDS011;40046;53.254;5.900;2023-07-13T14:58:40;8.38;;;2.88;;
54139;SDS011;40046;53.254;5.900;2023-07-13T15:01:09;7.90;;;2.05;;
54139;SDS011;40046;53.254;5.900;2023-07-13T15:03:38;6.32;;;2.42;;
54139;SDS011;40046;53.254;5.900;2023-07-13T15:06:09;8.60;;;4.13;;
54139;SDS011;40046;53.254;5.900;2023-07-13T15:08:35;8.63;;;2.75;;
54139;SDS011;40046;53.254;5.900;2023-07-13T15:11:01;8.65;;;2.30;;
54139;SDS011;40046;53.254;5.900;2023-07-13T15:13:30;7.53;;;2.22;;
54139;SDS011;40046;53.254;5.900;2023-07-13T15:15:56;5.90;;;2.05;;
54139;SDS011;40046;53.254;5.900;2023-07-13T15:18:22;6.80;;;2.13;;
54139;SDS011;40046;53.254;5.900;2023-07-13T15:20:49;10.88;;;2.95;;
54139;SDS011;40046;53.254;5.900;2023-07-13T15:23:17;10.75;;;2.63;;
54139;SDS011;40046;53.254;5.900;2023-07-13T15:25:44;9.52;;;2.50;;
54139;SDS011;40046;53.254;5.900;2023-07-13T15:28:11;4.95;;;2.17;;
54139;SDS011;40046;53.254;5.900;2023-07-13T15:30:41;6.35;;;2.95;;